Pierpont, Ohio
Current Conditions -  °F | °C
As of 12:29 PM on Friday 24 Oct 2014 (Local Time) from KHZY Reporting Station
Broken Clouds Broken Clouds  
Wind Chill: 55°   Ceiling: 2600
Heat Index: 55°   Visibility: 10mi
Dew Point: 45°   Wind: 9mph
Humidity: 69%   Direction: 290°WNW
Pressure: 30.07"   Gusts: NA
Location:  41.75°N, 80.57°W
Report Text: KHZY 241629Z AUTO 29008KT 10SM BKN026 13/07 A3007 RMK AO2 T01280072
Loading
Personal Weather Stations






























Interactive Weather Map
Tropical Storm Tracking
New forecast layout! Learn more

10-Day Weather Forecast

Advertisements
Track Severe Weather on mobile